createdAt,value
2017-04-08T00:00:33.241Z,22.26
2017-04-08T00:01:31.121Z,22.63
2017-04-08T00:02:30.145Z,23.24
2017-04-08T00:03:28.557Z,25.86
2017-04-08T00:04:26.596Z,26.23
2017-04-08T00:05:24.491Z,26.80
2017-04-08T00:06:22.744Z,26.93
2017-04-08T00:07:20.683Z,25.43
2017-04-08T00:08:18.956Z,23.67
2017-04-08T00:09:17.605Z,24.74
2017-04-08T00:10:15.772Z,24.61
2017-04-08T00:11:14.041Z,23.76
2017-04-08T00:12:11.923Z,23.27
2017-04-08T00:13:10.008Z,23.23
2017-04-08T00:14:08.461Z,22.77
2017-04-08T00:15:06.742Z,23.70
2017-04-08T00:16:05.141Z,25.24
2017-04-08T00:17:03.511Z,25.67
2017-04-08T00:18:01.635Z,28.19
2017-04-08T00:19:00.138Z,24.11
2017-04-08T00:19:58.490Z,28.16
2017-04-08T00:20:56.367Z,22.43
2017-04-08T00:21:54.608Z,20.79
2017-04-08T00:22:52.532Z,23.54
2017-04-08T00:23:50.398Z,20.93
2017-04-08T00:24:48.452Z,22.21
2017-04-08T00:25:46.317Z,23.87
2017-04-08T00:26:44.335Z,27.50
2017-04-08T00:27:42.211Z,26.77
2017-04-08T00:28:40.131Z,28.26
2017-04-08T00:29:38.074Z,24.76
2017-04-08T00:30:35.902Z,23.61
2017-04-08T00:31:33.735Z,24.50
2017-04-08T00:32:31.576Z,23.94
2017-04-08T00:33:29.412Z,24.73
2017-04-08T00:34:27.222Z,24.64
2017-04-08T00:35:25.212Z,26.01
2017-04-08T00:36:23.064Z,24.10
2017-04-08T00:37:21.044Z,22.31
2017-04-08T00:38:18.901Z,22.61
2017-04-08T00:39:16.756Z,24.39
2017-04-08T00:40:14.587Z,23.79
2017-04-08T00:41:12.440Z,23.47
2017-04-08T00:42:11.539Z,22.07
2017-04-08T00:43:10.120Z,22.83
2017-04-08T00:44:08.434Z,21.14
2017-04-08T00:45:06.882Z,20.79
2017-04-08T00:46:05.004Z,20.33
2017-04-08T00:47:03.468Z,21.31
2017-04-08T00:48:01.978Z,19.11
2017-04-08T00:49:00.140Z,17.99
2017-04-08T00:49:58.673Z,19.61
2017-04-08T00:50:57.069Z,15.57
2017-04-08T00:51:55.369Z,16.07
2017-04-08T00:52:53.867Z,15.79
2017-04-08T00:53:52.578Z,14.76
2017-04-08T00:54:51.089Z,19.37
2017-04-08T00:55:49.206Z,18.07
2017-04-08T00:56:47.707Z,20.84
2017-04-08T00:57:46.093Z,19.09
2017-04-08T00:58:44.209Z,20.23
2017-04-08T00:59:42.125Z,16.99
2017-04-08T01:00:45.871Z,18.06
2017-04-08T01:01:44.608Z,17.89
2017-04-08T01:02:42.595Z,17.61
2017-04-08T01:03:40.487Z,21.29
2017-04-08T01:04:38.905Z,23.01
2017-04-08T01:05:37.056Z,18.60
2017-04-08T01:06:36.001Z,19.06
2017-04-08T01:07:34.595Z,17.23
2017-04-08T01:08:33.118Z,18.04
2017-04-08T01:09:31.651Z,17.00
2017-04-08T01:10:30.267Z,15.44
2017-04-08T01:11:28.297Z,15.26
2017-04-08T01:12:26.394Z,14.74
2017-04-08T01:13:24.966Z,16.59
2017-04-08T01:14:23.449Z,15.50
2017-04-08T01:15:21.858Z,14.67
2017-04-08T01:16:20.332Z,14.26
2017-04-08T01:17:19.139Z,14.64
2017-04-08T01:18:17.556Z,13.37
2017-04-08T01:19:15.692Z,14.93
2017-04-08T01:20:13.833Z,17.96
2017-04-08T01:21:12.393Z,14.21
2017-04-08T01:22:10.335Z,16.29
2017-04-08T01:23:08.220Z,15.99
2017-04-08T01:24:06.496Z,13.83
2017-04-08T01:25:04.726Z,15.47
2017-04-08T01:26:03.231Z,15.36
2017-04-08T01:27:01.555Z,14.40
2017-04-08T01:27:59.979Z,15.21
2017-04-08T01:28:57.859Z,13.29
2017-04-08T01:29:56.526Z,13.93
2017-04-08T01:30:55.046Z,13.67
2017-04-08T01:31:53.153Z,13.89
2017-04-08T01:32:51.469Z,13.24
2017-04-08T01:33:50.035Z,14.51
2017-04-08T01:34:48.230Z,14.23
2017-04-08T01:35:46.752Z,14.16
2017-04-08T01:36:45.254Z,14.41
2017-04-08T01:37:43.356Z,14.29
2017-04-08T01:38:41.565Z,15.67
2017-04-08T01:39:39.792Z,14.61
2017-04-08T01:40:38.240Z,15.41
2017-04-08T01:41:36.641Z,15.03
2017-04-08T01:42:35.112Z,15.73
2017-04-08T01:43:33.615Z,15.60
2017-04-08T01:44:31.923Z,16.76
2017-04-08T01:45:30.405Z,14.16
2017-04-08T01:46:29.122Z,15.07
2017-04-08T01:47:27.699Z,15.19
2017-04-08T01:48:30.467Z,14.24
2017-04-08T01:49:31.387Z,15.39
2017-04-08T01:50:29.992Z,14.07
2017-04-08T01:51:32.287Z,15.90
2017-04-08T01:52:30.167Z,14.49
2017-04-08T01:53:28.016Z,14.23
2017-04-08T01:54:26.346Z,14.64
2017-04-08T01:55:24.227Z,13.10
2017-04-08T01:56:22.018Z,18.10
2017-04-08T01:57:19.945Z,15.83
2017-04-08T01:58:18.172Z,15.36
2017-04-08T01:59:16.440Z,14.77
2017-04-08T02:00:14.477Z,13.53
2017-04-08T02:01:12.438Z,16.69
2017-04-08T02:02:10.686Z,13.67
2017-04-08T02:03:08.800Z,15.36
2017-04-08T02:04:06.680Z,13.86
2017-04-08T02:05:05.028Z,15.00
2017-04-08T02:06:10.275Z,15.59
2017-04-08T02:07:16.282Z,15.07
2017-04-08T02:08:15.009Z,16.14
2017-04-08T02:09:12.936Z,15.36
2017-04-08T02:10:10.734Z,16.89
2017-04-08T02:11:08.589Z,16.20
2017-04-08T02:12:06.544Z,14.10
2017-04-08T02:13:04.396Z,14.39
2017-04-08T02:14:02.227Z,15.04
2017-04-08T02:15:00.057Z,15.27
2017-04-08T02:15:57.875Z,15.19
2017-04-08T02:16:55.763Z,15.76
2017-04-08T02:17:53.633Z,15.96
2017-04-08T02:18:51.488Z,18.04
2017-04-08T02:19:49.300Z,15.43
2017-04-08T02:20:47.116Z,17.87
2017-04-08T02:21:45.010Z,15.11
2017-04-08T02:22:42.857Z,15.24
2017-04-08T02:23:40.741Z,17.21
2017-04-08T02:24:38.626Z,20.70
2017-04-08T02:25:36.438Z,17.41
2017-04-08T02:26:34.415Z,14.23
2017-04-08T02:27:32.251Z,14.39
2017-04-08T02:28:30.153Z,17.41
2017-04-08T02:29:28.001Z,15.11
2017-04-08T02:30:25.927Z,14.96
2017-04-08T02:31:23.772Z,15.33
2017-04-08T02:32:21.717Z,14.96
2017-04-08T02:33:19.571Z,16.01
2017-04-08T02:34:17.413Z,14.69
2017-04-08T02:35:15.381Z,16.83
2017-04-08T02:36:13.255Z,15.94
2017-04-08T02:37:11.250Z,15.63
2017-04-08T02:38:09.121Z,16.37
2017-04-08T02:39:08.060Z,15.66
2017-04-08T02:40:07.541Z,15.43
2017-04-08T02:41:05.613Z,15.87
2017-04-08T02:42:03.853Z,15.94
2017-04-08T02:43:02.140Z,15.70
2017-04-08T02:44:00.253Z,14.86
2017-04-08T02:44:58.328Z,17.39
2017-04-08T02:45:56.775Z,21.10
2017-04-08T02:46:54.970Z,16.14
2017-04-08T02:47:53.434Z,15.44
2017-04-08T02:48:54.636Z,15.93
2017-04-08T02:49:54.169Z,17.07
2017-04-08T02:50:52.660Z,17.53
2017-04-08T02:51:50.982Z,16.20
2017-04-08T02:52:49.271Z,16.87
2017-04-08T02:53:47.229Z,15.30
2017-04-08T02:54:45.072Z,16.79
2017-04-08T02:55:42.874Z,15.80
2017-04-08T02:56:40.918Z,16.50
2017-04-08T02:57:38.733Z,15.89
2017-04-08T02:58:36.619Z,16.77
2017-04-08T02:59:34.553Z,15.57
2017-04-08T03:00:32.489Z,15.04
2017-04-08T03:01:30.413Z,19.57
2017-04-08T03:02:28.266Z,14.19
2017-04-08T03:03:26.129Z,19.14
2017-04-08T03:04:24.021Z,16.79
2017-04-08T03:05:21.891Z,17.43
2017-04-08T03:06:19.779Z,16.34
2017-04-08T03:07:17.588Z,21.79
2017-04-08T03:08:15.415Z,19.91
2017-04-08T03:09:13.212Z,16.76
2017-04-08T03:10:11.208Z,15.19
2017-04-08T03:11:09.056Z,16.00
2017-04-08T03:12:06.972Z,15.71
2017-04-08T03:13:04.843Z,16.71
2017-04-08T03:14:02.777Z,15.77
2017-04-08T03:15:00.649Z,16.56
2017-04-08T03:15:58.460Z,20.97
2017-04-08T03:16:56.431Z,19.27
2017-04-08T03:17:54.283Z,17.36
2017-04-08T03:18:52.297Z,16.79
2017-04-08T03:19:50.207Z,17.14
2017-04-08T03:20:48.048Z,20.63
2017-04-08T03:21:45.919Z,15.69
2017-04-08T03:22:43.772Z,16.66
2017-04-08T03:23:41.638Z,18.04
2017-04-08T03:24:39.496Z,15.21
2017-04-08T03:25:37.365Z,17.59
2017-04-08T03:26:35.212Z,18.16
2017-04-08T03:27:33.150Z,16.87
2017-04-08T03:28:31.015Z,17.73
2017-04-08T03:29:28.815Z,17.33
2017-04-08T03:30:26.756Z,15.51
2017-04-08T03:31:24.623Z,19.51
2017-04-08T03:32:22.478Z,17.21
2017-04-08T03:33:20.345Z,15.66
2017-04-08T03:34:18.308Z,14.71
2017-04-08T03:35:16.196Z,15.71
2017-04-08T03:36:14.020Z,15.10
2017-04-08T03:37:11.918Z,15.61
2017-04-08T03:38:09.747Z,16.01
2017-04-08T03:39:07.637Z,16.44
2017-04-08T03:40:05.436Z,15.37
2017-04-08T03:41:03.421Z,13.24
2017-04-08T03:42:01.279Z,16.59
2017-04-08T03:42:59.144Z,15.73
2017-04-08T03:43:57.019Z,17.46
2017-04-08T03:44:54.852Z,14.40
2017-04-08T03:45:52.826Z,14.03
2017-04-08T03:46:50.667Z,15.14
2017-04-08T03:47:48.570Z,17.63
2017-04-08T03:48:46.433Z,17.20
2017-04-08T03:49:44.260Z,12.84
2017-04-08T03:50:42.297Z,13.49
2017-04-08T03:51:40.133Z,14.07
2017-04-08T03:52:37.952Z,14.71
2017-04-08T03:53:35.758Z,13.47
2017-04-08T03:54:33.847Z,15.63
2017-04-08T03:55:31.712Z,13.13
2017-04-08T03:56:29.699Z,15.23
2017-04-08T03:57:27.599Z,17.76
2017-04-08T03:58:25.596Z,14.31
2017-04-08T03:59:23.520Z,14.19
2017-04-08T04:00:21.514Z,14.66
2017-04-08T04:01:19.384Z,13.76
2017-04-08T04:02:17.242Z,14.97
2017-04-08T04:03:15.416Z,15.27
2017-04-08T04:04:13.349Z,14.14
2017-04-08T04:05:11.223Z,15.50
2017-04-08T04:06:09.055Z,15.63
2017-04-08T04:07:06.877Z,14.41
2017-04-08T04:08:04.731Z,13.21
2017-04-08T04:09:02.653Z,12.96
2017-04-08T04:10:00.464Z,15.40
2017-04-08T04:10:58.500Z,16.17
2017-04-08T04:11:56.301Z,13.83
2017-04-08T04:12:54.279Z,13.49
2017-04-08T04:13:52.132Z,13.09
2017-04-08T04:14:49.959Z,14.54
2017-04-08T04:15:47.903Z,14.87
2017-04-08T04:16:48.971Z,14.43
2017-04-08T04:17:46.813Z,14.23
2017-04-08T04:18:44.647Z,14.17
2017-04-08T04:19:42.599Z,15.63
2017-04-08T04:20:40.428Z,15.44
2017-04-08T04:21:38.256Z,16.86
2017-04-08T04:22:36.194Z,15.13
2017-04-08T04:23:33.996Z,15.76
2017-04-08T04:24:31.829Z,16.54
2017-04-08T04:25:29.641Z,14.84
2017-04-08T04:26:27.548Z,18.07
2017-04-08T04:27:25.385Z,19.29
2017-04-08T04:28:23.241Z,14.89
2017-04-08T04:29:21.861Z,20.61
2017-04-08T04:30:19.798Z,14.56
2017-04-08T04:31:17.731Z,16.09
2017-04-08T04:32:15.548Z,15.80
2017-04-08T04:33:13.429Z,15.61
2017-04-08T04:34:11.292Z,16.03
2017-04-08T04:35:09.208Z,16.10
2017-04-08T04:36:07.036Z,16.31
2017-04-08T04:37:04.951Z,15.26
2017-04-08T04:38:02.812Z,17.94
2017-04-08T04:39:00.691Z,18.01
2017-04-08T04:39:58.598Z,14.73
2017-04-08T04:40:56.452Z,20.20
2017-04-08T04:41:54.367Z,16.66
2017-04-08T04:42:52.252Z,13.49
2017-04-08T04:43:50.136Z,17.46
2017-04-08T04:44:48.022Z,14.29
2017-04-08T04:45:45.880Z,17.73
2017-04-08T04:46:43.779Z,19.63
2017-04-08T04:47:41.600Z,14.20
2017-04-08T04:48:39.507Z,13.27
2017-04-08T04:49:37.368Z,15.41
2017-04-08T04:50:35.355Z,14.86
2017-04-08T04:51:33.234Z,16.14
2017-04-08T04:52:31.102Z,16.51
2017-04-08T04:53:29.008Z,16.84
2017-04-08T04:54:26.854Z,14.64
2017-04-08T04:55:24.799Z,14.81
2017-04-08T04:56:22.644Z,14.39
2017-04-08T04:57:20.568Z,15.74
2017-04-08T04:58:18.434Z,16.77
2017-04-08T04:59:16.316Z,15.91
2017-04-08T05:00:14.256Z,17.61
2017-04-08T05:01:12.180Z,14.97
2017-04-08T05:02:10.077Z,17.24
2017-04-08T05:03:07.924Z,17.40
2017-04-08T05:04:05.823Z,15.49
2017-04-08T05:05:03.729Z,19.87
2017-04-08T05:06:01.616Z,15.04
2017-04-08T05:06:59.477Z,14.96
2017-04-08T05:07:57.325Z,14.01
2017-04-08T05:08:55.189Z,14.97
2017-04-08T05:09:53.003Z,13.71
2017-04-08T05:10:50.979Z,15.80
2017-04-08T05:11:48.804Z,14.37
2017-04-08T05:12:46.724Z,16.97
2017-04-08T05:13:44.686Z,16.33
2017-04-08T05:14:42.510Z,15.83
2017-04-08T05:15:40.347Z,15.00
2017-04-08T05:16:38.284Z,12.59
2017-04-08T05:17:36.143Z,14.87
2017-04-08T05:18:33.985Z,15.67
2017-04-08T05:19:31.936Z,14.46
2017-04-08T05:20:29.763Z,16.21
2017-04-08T05:21:27.593Z,17.07
2017-04-08T05:22:25.594Z,18.00
2017-04-08T05:23:23.455Z,15.21
2017-04-08T05:24:21.308Z,14.81
2017-04-08T05:25:19.153Z,15.21
2017-04-08T05:26:17.013Z,12.96
2017-04-08T05:27:14.944Z,15.04
2017-04-08T05:28:12.765Z,17.46
2017-04-08T05:29:10.700Z,14.69
2017-04-08T05:30:08.590Z,15.19
2017-04-08T05:31:06.455Z,14.73
2017-04-08T05:32:04.376Z,14.07
2017-04-08T05:33:02.193Z,16.33
2017-04-08T05:34:00.111Z,15.90
2017-04-08T05:34:57.938Z,15.36
2017-04-08T05:35:55.834Z,15.34
2017-04-08T05:36:53.638Z,16.26
2017-04-08T05:37:51.936Z,15.16
2017-04-08T05:38:49.757Z,14.49
2017-04-08T05:39:47.577Z,17.00
2017-04-08T05:40:45.463Z,14.67
2017-04-08T05:41:43.261Z,20.70
2017-04-08T05:42:41.101Z,15.40
2017-04-08T05:43:38.961Z,16.41
2017-04-08T05:44:36.866Z,16.19
2017-04-08T05:45:34.701Z,15.24
2017-04-08T05:46:32.539Z,15.03
2017-04-08T05:47:30.420Z,18.10
2017-04-08T05:48:28.290Z,16.01
2017-04-08T05:49:26.261Z,17.24
2017-04-08T05:50:24.095Z,16.50
2017-04-08T05:51:22.006Z,16.57
2017-04-08T05:52:20.592Z,15.86
2017-04-08T05:53:18.446Z,16.60
2017-04-08T05:54:16.310Z,19.30
2017-04-08T05:55:14.172Z,14.94
2017-04-08T05:56:12.163Z,15.64
2017-04-08T05:57:09.996Z,15.70
2017-04-08T05:58:07.847Z,17.87
2017-04-08T05:59:05.740Z,16.01
2017-04-08T06:00:03.610Z,20.20
2017-04-08T06:01:01.490Z,18.00
2017-04-08T06:01:59.514Z,18.51
2017-04-08T06:02:57.412Z,16.21
2017-04-08T06:03:55.292Z,18.30
2017-04-08T06:04:53.097Z,19.23
2017-04-08T06:05:50.948Z,17.04
2017-04-08T06:06:48.783Z,20.64
2017-04-08T06:07:46.676Z,20.07
2017-04-08T06:08:44.487Z,21.79
2017-04-08T06:09:42.522Z,17.99
2017-04-08T06:10:40.413Z,19.76
2017-04-08T06:11:38.273Z,19.44
2017-04-08T06:12:37.297Z,18.94
2017-04-08T06:13:35.151Z,20.11
2017-04-08T06:14:33.081Z,24.60
2017-04-08T06:15:30.922Z,18.81
2017-04-08T06:16:28.797Z,20.64
2017-04-08T06:17:26.645Z,18.46
2017-04-08T06:18:24.532Z,21.30
2017-04-08T06:19:22.411Z,20.54
2017-04-08T06:20:20.256Z,22.76
2017-04-08T06:21:18.115Z,20.10
2017-04-08T06:22:15.948Z,20.36
2017-04-08T06:23:13.830Z,21.34
2017-04-08T06:24:11.680Z,26.86
2017-04-08T06:25:09.467Z,24.31
2017-04-08T06:26:07.310Z,18.53
2017-04-08T06:27:05.225Z,19.31
2017-04-08T06:28:03.098Z,20.23
2017-04-08T06:29:00.948Z,22.14
2017-04-08T06:29:58.872Z,22.80
2017-04-08T06:30:56.703Z,19.06
2017-04-08T06:31:54.591Z,20.24
2017-04-08T06:32:53.829Z,19.44
2017-04-08T06:33:51.696Z,23.23
2017-04-08T06:34:49.528Z,18.36
2017-04-08T06:35:47.389Z,18.73
2017-04-08T06:36:45.294Z,22.44
2017-04-08T06:37:43.132Z,19.60
2017-04-08T06:38:40.988Z,19.81
2017-04-08T06:39:38.837Z,23.04
2017-04-08T06:40:36.753Z,20.26
2017-04-08T06:41:34.617Z,18.81
2017-04-08T06:42:32.545Z,18.96
2017-04-08T06:43:30.512Z,21.86
2017-04-08T06:44:28.381Z,25.61
2017-04-08T06:45:26.268Z,21.14
2017-04-08T06:46:24.147Z,21.47
2017-04-08T06:47:22.053Z,19.30
2017-04-08T06:48:19.875Z,19.37
2017-04-08T06:49:17.740Z,19.96
2017-04-08T06:50:15.573Z,21.44
2017-04-08T06:51:13.472Z,18.56
2017-04-08T06:52:11.376Z,25.84
2017-04-08T06:53:09.212Z,18.80
2017-04-08T06:54:07.197Z,19.64
2017-04-08T06:55:05.118Z,19.63
2017-04-08T06:56:03.048Z,21.51
2017-04-08T06:57:00.896Z,22.14
2017-04-08T06:57:58.754Z,23.24
2017-04-08T06:58:56.612Z,19.90
2017-04-08T06:59:54.526Z,21.40
2017-04-08T07:00:52.393Z,21.24
2017-04-08T07:01:50.264Z,20.60
2017-04-08T07:02:50.212Z,20.16
2017-04-08T07:03:48.202Z,20.91
2017-04-08T07:04:46.043Z,18.91
2017-04-08T07:05:43.966Z,20.74
2017-04-08T07:06:41.834Z,22.80
2017-04-08T07:07:39.656Z,22.60
2017-04-08T07:08:37.524Z,21.51
2017-04-08T07:09:35.371Z,19.53
2017-04-08T07:10:33.222Z,21.14
2017-04-08T07:11:31.105Z,19.54
2017-04-08T07:12:29.009Z,21.89
2017-04-08T07:13:26.840Z,19.87
2017-04-08T07:14:24.703Z,18.56
2017-04-08T07:15:23.407Z,22.64
2017-04-08T07:16:21.238Z,18.50
2017-04-08T07:17:19.196Z,20.06
2017-04-08T07:18:17.076Z,21.70
2017-04-08T07:19:14.912Z,23.74
2017-04-08T07:20:12.846Z,19.99
2017-04-08T07:21:10.732Z,20.59
2017-04-08T07:22:08.546Z,20.84
2017-04-08T07:23:06.395Z,21.31
2017-04-08T07:24:04.315Z,20.36
2017-04-08T07:25:02.185Z,20.54
2017-04-08T07:26:00.036Z,21.64
2017-04-08T07:26:58.043Z,22.66
2017-04-08T07:27:55.874Z,24.33
2017-04-08T07:28:53.811Z,20.06
2017-04-08T07:29:51.663Z,19.69
2017-04-08T07:30:49.612Z,24.26
2017-04-08T07:31:47.460Z,24.51
2017-04-08T07:32:45.371Z,20.91
2017-04-08T07:33:43.249Z,21.41
2017-04-08T07:34:41.087Z,20.79
2017-04-08T07:35:38.918Z,22.33
2017-04-08T07:36:36.751Z,22.06
2017-04-08T07:37:34.713Z,23.63
2017-04-08T07:38:32.609Z,21.66
2017-04-08T07:39:30.425Z,22.60
2017-04-08T07:40:28.322Z,25.87
2017-04-08T07:41:26.152Z,22.37
2017-04-08T07:42:24.020Z,21.49
2017-04-08T07:43:21.916Z,27.34
2017-04-08T07:44:19.792Z,24.63
2017-04-08T07:45:17.751Z,22.33
2017-04-08T07:46:15.593Z,28.00
2017-04-08T07:47:13.463Z,22.97
2017-04-08T07:48:11.309Z,22.73
2017-04-08T07:49:09.173Z,26.09
2017-04-08T07:50:07.108Z,22.29
2017-04-08T07:51:04.972Z,24.10
2017-04-08T07:52:02.955Z,23.33
2017-04-08T07:53:00.828Z,22.54
2017-04-08T07:53:58.681Z,22.66
2017-04-08T07:54:57.244Z,26.23
2017-04-08T07:55:55.140Z,25.09
2017-04-08T07:56:52.973Z,24.83
2017-04-08T07:57:50.776Z,24.46
2017-04-08T07:58:48.659Z,25.54
2017-04-08T07:59:46.463Z,24.07
2017-04-08T08:00:44.310Z,24.16
2017-04-08T08:01:42.139Z,27.16
2017-04-08T08:02:40.038Z,22.54
2017-04-08T08:03:37.841Z,25.14
2017-04-08T08:04:35.784Z,23.63
2017-04-08T08:05:33.612Z,25.93
2017-04-08T08:06:31.497Z,24.79
2017-04-08T08:07:29.391Z,23.71
2017-04-08T08:08:27.240Z,25.10
2017-04-08T08:09:25.208Z,25.60
2017-04-08T08:10:23.033Z,25.51
2017-04-08T08:11:20.951Z,27.49
2017-04-08T08:12:18.850Z,26.36
2017-04-08T08:13:16.727Z,22.53
2017-04-08T08:14:14.588Z,23.97
2017-04-08T08:15:12.416Z,25.67
2017-04-08T08:16:10.312Z,23.97
2017-04-08T08:17:08.144Z,27.56
2017-04-08T08:18:06.091Z,23.99
2017-04-08T08:19:03.978Z,25.77
2017-04-08T08:20:01.809Z,26.37
2017-04-08T08:20:59.731Z,23.49
2017-04-08T08:21:57.622Z,23.79
2017-04-08T08:22:55.511Z,23.82
2017-04-08T08:23:53.327Z,26.49
2017-04-08T08:24:51.272Z,25.67
2017-04-08T08:25:49.157Z,25.97
2017-04-08T08:26:47.054Z,27.74
2017-04-08T08:27:44.889Z,25.19
2017-04-08T08:28:42.720Z,24.63
2017-04-08T08:29:40.669Z,24.71
2017-04-08T08:30:38.508Z,24.83
2017-04-08T08:31:36.484Z,25.61
2017-04-08T08:32:34.383Z,25.97
2017-04-08T08:33:32.240Z,26.69
2017-04-08T08:34:30.133Z,26.69
2017-04-08T08:35:27.972Z,30.01
2017-04-08T08:36:25.918Z,26.86
2017-04-08T08:37:23.786Z,31.50
2017-04-08T08:38:21.723Z,30.74
2017-04-08T08:39:19.560Z,29.93
2017-04-08T08:40:17.419Z,28.26
2017-04-08T08:41:15.314Z,32.29
2017-04-08T08:42:13.161Z,30.40
2017-04-08T08:43:11.143Z,30.11
2017-04-08T08:44:08.989Z,29.16
2017-04-08T08:45:06.816Z,29.46
2017-04-08T08:46:05.572Z,30.37
2017-04-08T08:47:03.410Z,28.69
2017-04-08T08:48:01.260Z,28.99
2017-04-08T08:48:59.144Z,27.86
2017-04-08T08:49:57.041Z,31.30
2017-04-08T08:50:54.901Z,30.30
2017-04-08T08:51:52.796Z,28.36
2017-04-08T08:52:50.656Z,27.34
2017-04-08T08:53:48.507Z,27.41
2017-04-08T08:54:46.461Z,28.34
2017-04-08T08:55:44.276Z,30.54
2017-04-08T08:56:42.179Z,31.19
2017-04-08T08:57:40.076Z,31.17
2017-04-08T08:58:37.883Z,29.01
2017-04-08T08:59:35.765Z,32.23
2017-04-08T09:00:33.608Z,31.79
2017-04-08T09:01:31.535Z,31.20
2017-04-08T09:02:29.385Z,30.29
2017-04-08T09:03:27.335Z,32.34
2017-04-08T09:04:25.176Z,31.86
2017-04-08T09:05:23.022Z,30.16
2017-04-08T09:06:21.044Z,30.41
2017-04-08T09:07:18.912Z,31.16
2017-04-08T09:08:16.800Z,31.90
2017-04-08T09:09:14.592Z,32.13
2017-04-08T09:10:12.569Z,32.29
2017-04-08T09:11:10.444Z,32.49
2017-04-08T09:12:08.298Z,29.54
2017-04-08T09:13:06.156Z,31.29
2017-04-08T09:14:04.047Z,31.50
2017-04-08T09:15:01.931Z,33.91
2017-04-08T09:15:59.733Z,37.87
2017-04-08T09:16:57.750Z,32.26
2017-04-08T09:17:56.229Z,35.87
2017-04-08T09:18:54.084Z,34.66
2017-04-08T09:19:52.089Z,32.10
2017-04-08T09:20:49.934Z,34.47
2017-04-08T09:21:47.861Z,34.84
2017-04-08T09:22:45.724Z,30.50
2017-04-08T09:23:43.600Z,32.07
2017-04-08T09:24:41.508Z,31.49
2017-04-08T09:25:39.408Z,30.96
2017-04-08T09:26:37.329Z,35.31
2017-04-08T09:27:35.207Z,34.11
2017-04-08T09:28:33.029Z,32.39
2017-04-08T09:29:30.893Z,35.43
2017-04-08T09:30:28.747Z,34.63
2017-04-08T09:31:26.683Z,32.29
2017-04-08T09:32:24.553Z,34.19
2017-04-08T09:33:22.459Z,32.90
2017-04-08T09:34:20.345Z,35.83
2017-04-08T09:35:18.236Z,33.97
2017-04-08T09:36:16.161Z,36.13
2017-04-08T09:37:13.997Z,33.11
2017-04-08T09:38:11.899Z,34.21
2017-04-08T09:39:10.769Z,34.89
2017-04-08T09:40:08.632Z,34.53
2017-04-08T09:41:06.426Z,35.21
2017-04-08T09:42:04.257Z,34.19
2017-04-08T09:43:02.089Z,35.76
2017-04-08T09:43:59.996Z,32.59
2017-04-08T09:44:59.596Z,33.56
2017-04-08T09:45:57.428Z,33.86
2017-04-08T09:46:55.311Z,32.41
2017-04-08T09:47:53.149Z,38.96
2017-04-08T09:48:50.998Z,35.11
2017-04-08T09:49:48.860Z,39.81
2017-04-08T09:50:46.724Z,38.51
2017-04-08T09:51:44.624Z,37.09
2017-04-08T09:52:42.462Z,36.99
2017-04-08T09:53:40.376Z,34.73
2017-04-08T09:54:38.222Z,35.69
2017-04-08T09:55:36.048Z,36.00
2017-04-08T09:56:33.881Z,38.93
2017-04-08T09:57:31.752Z,37.81
2017-04-08T09:58:29.560Z,34.66
2017-04-08T09:59:27.450Z,37.21
2017-04-08T10:00:25.399Z,32.00
2017-04-08T10:01:24.436Z,32.37
2017-04-08T10:02:22.466Z,32.40
2017-04-08T10:03:20.303Z,31.40
2017-04-08T10:04:18.255Z,32.07
2017-04-08T10:05:16.103Z,30.51
2017-04-08T10:06:14.036Z,29.64
2017-04-08T10:07:11.907Z,33.06
2017-04-08T10:08:09.761Z,31.77
2017-04-08T10:09:07.663Z,32.67
2017-04-08T10:10:05.510Z,32.09
2017-04-08T10:11:03.404Z,30.76
2017-04-08T10:12:01.218Z,33.30
2017-04-08T10:12:59.152Z,32.94
2017-04-08T10:13:57.044Z,33.61
2017-04-08T10:14:54.924Z,33.36
2017-04-08T10:15:52.776Z,32.51
2017-04-08T10:16:50.662Z,33.10
2017-04-08T10:17:48.601Z,33.29
2017-04-08T10:18:46.464Z,31.47
2017-04-08T10:19:44.337Z,32.46
2017-04-08T10:20:42.224Z,32.37
2017-04-08T10:21:40.088Z,32.49
2017-04-08T10:22:38.004Z,31.44
2017-04-08T10:23:35.938Z,30.41
2017-04-08T10:24:33.803Z,31.77
2017-04-08T10:25:31.599Z,30.01
2017-04-08T10:26:29.503Z,30.71
2017-04-08T10:27:27.349Z,30.59
2017-04-08T10:28:25.322Z,31.41
2017-04-08T10:29:23.231Z,30.37
2017-04-08T10:30:21.152Z,32.57
2017-04-08T10:31:19.023Z,31.47
2017-04-08T10:32:16.904Z,36.19
2017-04-08T10:33:14.771Z,34.51
2017-04-08T10:34:12.648Z,35.66
2017-04-08T10:35:10.597Z,38.66
2017-04-08T10:36:08.452Z,37.04
2017-04-08T10:37:06.241Z,38.31
2017-04-08T10:38:04.144Z,37.66
2017-04-08T10:39:01.977Z,36.07
2017-04-08T10:39:59.905Z,38.64
2017-04-08T10:40:57.766Z,34.39
2017-04-08T10:41:55.725Z,37.46
2017-04-08T10:42:53.636Z,36.96
2017-04-08T10:43:51.511Z,36.73
2017-04-08T10:44:49.419Z,36.71
2017-04-08T10:45:47.395Z,42.11
2017-04-08T10:46:45.310Z,36.74
2017-04-08T10:47:43.144Z,39.16
2017-04-08T10:48:41.011Z,39.69
2017-04-08T10:49:39.280Z,41.66
2017-04-08T10:50:37.175Z,35.44
2017-04-08T10:51:34.969Z,35.91
2017-04-08T10:52:32.784Z,38.51
2017-04-08T10:53:31.519Z,35.69
2017-04-08T10:54:29.339Z,35.47
2017-04-08T10:55:27.206Z,57.43
2017-04-08T10:56:25.065Z,36.94
2017-04-08T10:57:22.888Z,36.37
2017-04-08T10:58:20.782Z,35.73
2017-04-08T10:59:18.593Z,38.23
2017-04-08T11:00:16.513Z,37.11
2017-04-08T11:01:14.326Z,35.57
2017-04-08T11:02:12.179Z,37.99
2017-04-08T11:03:10.068Z,38.03
2017-04-08T11:04:07.869Z,42.70
2017-04-08T11:05:05.723Z,41.03
2017-04-08T11:06:03.525Z,40.51
2017-04-08T11:07:01.456Z,40.91
2017-04-08T11:07:59.323Z,41.41
2017-04-08T11:08:57.539Z,40.94
2017-04-08T11:09:57.209Z,42.24
2017-04-08T11:10:55.079Z,42.26
2017-04-08T11:11:52.903Z,42.11
2017-04-08T11:12:50.731Z,40.54
2017-04-08T11:13:48.529Z,41.69
2017-04-08T11:14:46.524Z,43.21
2017-04-08T11:15:44.454Z,42.29
2017-04-08T11:16:42.296Z,43.87
2017-04-08T11:17:40.233Z,41.21
2017-04-08T11:18:38.059Z,43.17
2017-04-08T11:19:35.963Z,45.93
2017-04-08T11:20:33.815Z,41.74
2017-04-08T11:21:31.768Z,44.46
2017-04-08T11:22:29.632Z,43.59
2017-04-08T11:23:27.444Z,47.40
2017-04-08T11:24:25.391Z,45.69
2017-04-08T11:25:23.176Z,45.36
2017-04-08T11:26:21.265Z,44.61
2017-04-08T11:27:19.108Z,47.11
2017-04-08T11:28:16.961Z,43.17
2017-04-08T11:29:14.832Z,44.99
2017-04-08T11:30:12.704Z,42.86
2017-04-08T11:31:10.623Z,36.87
2017-04-08T11:32:08.498Z,40.56
2017-04-08T11:33:06.389Z,36.64
2017-04-08T11:34:04.257Z,38.94
2017-04-08T11:35:02.141Z,38.44
2017-04-08T11:36:00.033Z,38.13
2017-04-08T11:36:57.832Z,39.89
2017-04-08T11:37:55.809Z,37.76
2017-04-08T11:38:53.681Z,41.83
2017-04-08T11:39:51.666Z,38.53
2017-04-08T11:40:49.531Z,38.86
2017-04-08T11:41:47.416Z,38.81
2017-04-08T11:42:45.336Z,37.63
2017-04-08T11:43:43.180Z,39.39
2017-04-08T11:44:41.057Z,40.27
2017-04-08T11:45:38.911Z,40.16
2017-04-08T11:46:36.822Z,39.30
2017-04-08T11:47:34.644Z,39.11
2017-04-08T11:48:32.563Z,40.11
2017-04-08T11:49:30.721Z,41.47
2017-04-08T11:50:28.540Z,42.67
2017-04-08T11:51:26.388Z,39.81
2017-04-08T11:52:24.234Z,40.90
2017-04-08T11:53:22.100Z,40.36
2017-04-08T11:54:20.544Z,39.01
2017-04-08T11:55:18.367Z,42.84
2017-04-08T11:56:17.641Z,40.94
2017-04-08T11:57:15.585Z,42.24
2017-04-08T11:58:13.438Z,43.39
2017-04-08T11:59:11.379Z,45.11
2017-04-08T12:00:09.241Z,43.56
2017-04-08T12:01:07.201Z,42.24
2017-04-08T12:02:05.056Z,44.29
2017-04-08T12:03:03.040Z,43.10
2017-04-08T12:04:00.933Z,42.71
2017-04-08T12:04:58.753Z,46.51
2017-04-08T12:05:56.588Z,41.64
2017-04-08T12:06:54.381Z,41.99
2017-04-08T12:07:52.308Z,44.14
2017-04-08T12:08:50.151Z,47.01
2017-04-08T12:09:48.060Z,44.06
2017-04-08T12:10:45.961Z,44.03
2017-04-08T12:11:43.812Z,43.47
2017-04-08T12:12:41.702Z,43.67
2017-04-08T12:13:39.567Z,45.96
2017-04-08T12:14:37.443Z,47.36
2017-04-08T12:15:35.279Z,43.96
2017-04-08T12:16:33.232Z,45.20
2017-04-08T12:17:31.150Z,44.74
2017-04-08T12:18:29.036Z,45.54
2017-04-08T12:19:26.913Z,47.37
2017-04-08T12:20:24.745Z,44.00
2017-04-08T12:21:22.649Z,46.59
2017-04-08T12:22:21.627Z,45.93
2017-04-08T12:23:19.466Z,47.66
2017-04-08T12:24:17.267Z,44.16
2017-04-08T12:25:15.112Z,46.57
2017-04-08T12:26:14.485Z,45.87
2017-04-08T12:27:12.389Z,49.21